Historique des mesures à Cassis (13260), France
Quotidien Résumé Fevrier 28, 2017 Unités:  US    Métrique   Métrique/US
« Précédent (Jour)
Suivant (Jour) »
Quotidien Hebdomadaire Mensuel Annuel Période au choix
  Maximum: Minimum: Moyenne:
Température: 32 °F 49.3 °F 54.1 °F
Point de rosée: 32 °F 37 °F 47.3 °F
Humidité: Humidity % 62 % 74 %
Vitesse du vent: WindSpeedKMH mph 0.0 mph 4.2 mph
Rafales: WindSpeedGustKMH mph - -
Vent:- - WSW
Pression: 0 in 29.6 in -
Précipitations: 38.1 in    
Historical Graphs
 
 
Mesures pour : Fevrier 28, 2017
Heure Temperature Point de rosée Pression Vent Vitesse du vent Rafales Humidité Pluie (par heure) Conditions
32 °F 32 °F 0 in Calm     Humidity % 0 in SoftwareType W/m2
00:10 56.3 °F 51.8 °F 29.7 in SSE 3.5 mph 3.5 mph 85 % 0 in open2300-1.11 W/m2
01:11 56.3 °F 51.8 °F 29.7 in WNW 4.0 mph 6.1 mph 85 % 0 in open2300-1.11 W/m2
02:10 56.5 °F 52 °F 29.7 in Calm   4.0 mph 85 % 0 in open2300-1.11 W/m2
03:11 56.3 °F 51.8 °F 29.7 in Calm   2.9 mph 85 % 0 in open2300-1.11 W/m2
04:10 56.5 °F 52 °F 29.6 in Calm   11.6 mph 85 % 0 in open2300-1.11 W/m2
05:11 56.1 °F 51.6 °F 29.6 in SW 1.4 mph 11.1 mph 85 % 0 in open2300-1.11 W/m2
06:10 54.5 °F 49.5 °F 29.6 in North 4.3 mph 7.6 mph 83 % 0 in open2300-1.11 W/m2
07:11 52.9 °F 47.8 °F 29.6 in Calm   1.8 mph 83 % 0 in open2300-1.11 W/m2
08:10 53.2 °F 48.2 °F 29.6 in Calm     83 % 0 in open2300-1.11 W/m2
09:11 55.8 °F 50.4 °F 29.6 in Calm   3.5 mph 82 % 0 in open2300-1.11 W/m2
10:10 56.5 °F 51.1 °F 29.6 in Calm     82 % 0 in open2300-1.11 W/m2
11:11 57.4 °F 51.6 °F 29.6 in Calm     81 % 0 in open2300-1.11 W/m2
12:10 58.6 °F 52.2 °F 29.6 in Calm   2.9 mph 79 % 0 in open2300-1.11 W/m2
13:11 59.7 °F 52.9 °F 29.6 in Calm   3.5 mph 78 % 0 in open2300-1.11 W/m2
14:10 58.6 °F 50.7 °F 29.6 in West 2.6 mph 5.8 mph 75 % 0 in open2300-1.11 W/m2
15:11 57 °F 48 °F 29.6 in NNW 10.8 mph 10.8 mph 72 % 0 in open2300-1.11 W/m2
16:10 57.4 °F 48.4 °F 29.6 in WSW 5.8 mph 5.8 mph 72 % 0 in open2300-1.11 W/m2
17:11 57 °F 48 °F 29.6 in South 2.6 mph 11.1 mph 72 % 0 in open2300-1.11 W/m2
18:10 51.8 °F 43.5 °F 29.6 in NNW 16.3 mph 16.3 mph 73 % 38.1 in open2300-1.11 W/m2
19:11 52 °F 44.1 °F 29.7 in NW 7.2 mph 9.7 mph 74 % 0 in open2300-1.11 W/m2
20:10 51.1 °F 40.8 °F 29.7 in NW 5.8 mph 18.3 mph 68 % 0 in open2300-1.11 W/m2
21:11 50.2 °F 39.9 °F 29.7 in NW 11.9 mph 11.9 mph 68 % 0 in open2300-1.11 W/m2
22:10 49.6 °F 37 °F 29.7 in ENE 9.7 mph 29.1 mph 62 % 0 in open2300-1.11 W/m2
23:11 49.3 °F 37.6 °F 29.8 in WNW 19.1 mph 19.1 mph 64 % 0 in open2300-1.11 W/m2
Observations météo à CASSIS
WU-History script by Weather Underground - 1 mb